sensor_id;sensor_type;location;lat;lon;timestamp;P1;durP1;ratioP1;P2;durP2;ratioP2
26512;SDS011;14186;53.822;10.152;2023-05-21T00:04:25;4.75;;;1.83;;
26512;SDS011;14186;53.822;10.152;2023-05-21T00:09:26;8.45;;;1.40;;
26512;SDS011;14186;53.822;10.152;2023-05-21T00:14:27;7.88;;;1.75;;
26512;SDS011;14186;53.822;10.152;2023-05-21T00:19:27;6.25;;;1.58;;
26512;SDS011;14186;53.822;10.152;2023-05-21T00:24:28;5.55;;;1.70;;
26512;SDS011;14186;53.822;10.152;2023-05-21T00:29:29;5.00;;;1.70;;
26512;SDS011;14186;53.822;10.152;2023-05-21T00:34:29;6.80;;;2.50;;
26512;SDS011;14186;53.822;10.152;2023-05-21T00:39:30;6.25;;;1.77;;
26512;SDS011;14186;53.822;10.152;2023-05-21T00:44:31;6.50;;;1.58;;
26512;SDS011;14186;53.822;10.152;2023-05-21T00:49:31;6.15;;;1.70;;
26512;SDS011;14186;53.822;10.152;2023-05-21T00:54:32;7.22;;;1.98;;
26512;SDS011;14186;53.822;10.152;2023-05-21T00:59:33;5.70;;;1.90;;
26512;SDS011;14186;53.822;10.152;2023-05-21T01:04:33;5.80;;;2.10;;
26512;SDS011;14186;53.822;10.152;2023-05-21T01:09:34;8.80;;;2.35;;
26512;SDS011;14186;53.822;10.152;2023-05-21T01:14:36;8.53;;;2.00;;
26512;SDS011;14186;53.822;10.152;2023-05-21T01:19:37;7.70;;;2.13;;
26512;SDS011;14186;53.822;10.152;2023-05-21T01:24:39;6.53;;;2.17;;
26512;SDS011;14186;53.822;10.152;2023-05-21T01:29:39;7.95;;;2.17;;
26512;SDS011;14186;53.822;10.152;2023-05-21T01:34:39;5.57;;;2.20;;
26512;SDS011;14186;53.822;10.152;2023-05-21T01:39:43;7.40;;;2.67;;
26512;SDS011;14186;53.822;10.152;2023-05-21T01:44:43;11.70;;;2.85;;
26512;SDS011;14186;53.822;10.152;2023-05-21T01:49:43;5.75;;;2.50;;
26512;SDS011;14186;53.822;10.152;2023-05-21T01:54:45;5.28;;;2.50;;
26512;SDS011;14186;53.822;10.152;2023-05-21T01:59:46;10.48;;;2.95;;
26512;SDS011;14186;53.822;10.152;2023-05-21T02:04:46;8.57;;;2.58;;
26512;SDS011;14186;53.822;10.152;2023-05-21T02:09:47;7.22;;;3.17;;
26512;SDS011;14186;53.822;10.152;2023-05-21T02:14:47;13.90;;;3.38;;
26512;SDS011;14186;53.822;10.152;2023-05-21T02:19:48;9.10;;;3.03;;
26512;SDS011;14186;53.822;10.152;2023-05-21T02:24:49;7.43;;;2.47;;
26512;SDS011;14186;53.822;10.152;2023-05-21T02:29:49;8.55;;;3.22;;
26512;SDS011;14186;53.822;10.152;2023-05-21T02:34:50;9.10;;;3.50;;
26512;SDS011;14186;53.822;10.152;2023-05-21T02:39:51;8.35;;;4.22;;
26512;SDS011;14186;53.822;10.152;2023-05-21T02:44:51;9.77;;;4.85;;
26512;SDS011;14186;53.822;10.152;2023-05-21T02:49:53;10.57;;;3.78;;
26512;SDS011;14186;53.822;10.152;2023-05-21T02:54:54;12.23;;;3.65;;
26512;SDS011;14186;53.822;10.152;2023-05-21T02:59:55;13.65;;;4.55;;
26512;SDS011;14186;53.822;10.152;2023-05-21T03:04:55;10.82;;;4.07;;
26512;SDS011;14186;53.822;10.152;2023-05-21T03:09:56;16.27;;;5.35;;
26512;SDS011;14186;53.822;10.152;2023-05-21T03:14:56;10.68;;;4.60;;
26512;SDS011;14186;53.822;10.152;2023-05-21T03:19:57;15.20;;;4.90;;
26512;SDS011;14186;53.822;10.152;2023-05-21T03:24:58;11.95;;;4.75;;
26512;SDS011;14186;53.822;10.152;2023-05-21T03:29:58;14.35;;;5.50;;
26512;SDS011;14186;53.822;10.152;2023-05-21T03:34:59;10.73;;;4.82;;
26512;SDS011;14186;53.822;10.152;2023-05-21T03:40:00;9.27;;;5.50;;
26512;SDS011;14186;53.822;10.152;2023-05-21T03:45:01;18.77;;;4.75;;
26512;SDS011;14186;53.822;10.152;2023-05-21T03:50:01;15.30;;;4.97;;
26512;SDS011;14186;53.822;10.152;2023-05-21T03:55:03;13.85;;;4.85;;
26512;SDS011;14186;53.822;10.152;2023-05-21T04:00:04;11.02;;;5.07;;
26512;SDS011;14186;53.822;10.152;2023-05-21T04:05:05;9.73;;;5.05;;
26512;SDS011;14186;53.822;10.152;2023-05-21T04:10:07;10.02;;;4.35;;
26512;SDS011;14186;53.822;10.152;2023-05-21T04:15:08;12.80;;;3.80;;
26512;SDS011;14186;53.822;10.152;2023-05-21T04:20:08;9.27;;;3.47;;
26512;SDS011;14186;53.822;10.152;2023-05-21T04:25:10;9.57;;;3.60;;
26512;SDS011;14186;53.822;10.152;2023-05-21T04:30:10;9.32;;;4.72;;
26512;SDS011;14186;53.822;10.152;2023-05-21T04:35:10;9.02;;;3.58;;
26512;SDS011;14186;53.822;10.152;2023-05-21T04:40:12;10.48;;;3.78;;
26512;SDS011;14186;53.822;10.152;2023-05-21T04:45:12;7.65;;;3.38;;
26512;SDS011;14186;53.822;10.152;2023-05-21T04:50:12;14.82;;;4.45;;
26512;SDS011;14186;53.822;10.152;2023-05-21T04:55:14;10.88;;;4.25;;
26512;SDS011;14186;53.822;10.152;2023-05-21T05:00:14;9.18;;;3.88;;
26512;SDS011;14186;53.822;10.152;2023-05-21T05:05:14;8.88;;;3.22;;
26512;SDS011;14186;53.822;10.152;2023-05-21T05:10:16;12.90;;;4.88;;
26512;SDS011;14186;53.822;10.152;2023-05-21T05:15:16;7.18;;;3.22;;
26512;SDS011;14186;53.822;10.152;2023-05-21T05:20:16;11.15;;;4.63;;
26512;SDS011;14186;53.822;10.152;2023-05-21T05:25:18;9.20;;;3.57;;
26512;SDS011;14186;53.822;10.152;2023-05-21T05:30:18;8.90;;;4.10;;
26512;SDS011;14186;53.822;10.152;2023-05-21T05:35:18;9.13;;;3.55;;
26512;SDS011;14186;53.822;10.152;2023-05-21T05:40:20;10.30;;;3.92;;
26512;SDS011;14186;53.822;10.152;2023-05-21T05:45:20;9.43;;;3.63;;
26512;SDS011;14186;53.822;10.152;2023-05-21T05:50:20;14.93;;;4.28;;
26512;SDS011;14186;53.822;10.152;2023-05-21T05:55:22;10.30;;;4.50;;
26512;SDS011;14186;53.822;10.152;2023-05-21T06:00:22;10.30;;;4.40;;
26512;SDS011;14186;53.822;10.152;2023-05-21T06:05:22;11.75;;;3.90;;
26512;SDS011;14186;53.822;10.152;2023-05-21T06:10:24;8.75;;;3.97;;
26512;SDS011;14186;53.822;10.152;2023-05-21T06:15:24;8.73;;;3.60;;
26512;SDS011;14186;53.822;10.152;2023-05-21T06:20:24;10.65;;;4.20;;
26512;SDS011;14186;53.822;10.152;2023-05-21T06:25:26;7.07;;;3.90;;
26512;SDS011;14186;53.822;10.152;2023-05-21T06:30:26;9.65;;;3.60;;
26512;SDS011;14186;53.822;10.152;2023-05-21T06:35:26;12.07;;;4.47;;
26512;SDS011;14186;53.822;10.152;2023-05-21T06:40:28;13.80;;;4.65;;
26512;SDS011;14186;53.822;10.152;2023-05-21T06:45:28;10.80;;;4.90;;
26512;SDS011;14186;53.822;10.152;2023-05-21T06:50:28;14.23;;;4.50;;
26512;SDS011;14186;53.822;10.152;2023-05-21T06:55:30;9.98;;;4.30;;
26512;SDS011;14186;53.822;10.152;2023-05-21T07:00:30;10.77;;;4.90;;
26512;SDS011;14186;53.822;10.152;2023-05-21T07:05:30;9.50;;;4.75;;
26512;SDS011;14186;53.822;10.152;2023-05-21T07:10:32;9.25;;;4.60;;
26512;SDS011;14186;53.822;10.152;2023-05-21T07:15:32;8.18;;;5.60;;
26512;SDS011;14186;53.822;10.152;2023-05-21T07:20:32;9.50;;;5.30;;
26512;SDS011;14186;53.822;10.152;2023-05-21T07:25:34;11.07;;;5.68;;
26512;SDS011;14186;53.822;10.152;2023-05-21T07:30:34;10.70;;;6.53;;
26512;SDS011;14186;53.822;10.152;2023-05-21T07:35:34;13.30;;;6.65;;
26512;SDS011;14186;53.822;10.152;2023-05-21T07:40:36;13.27;;;5.43;;
26512;SDS011;14186;53.822;10.152;2023-05-21T07:45:36;10.90;;;5.70;;
26512;SDS011;14186;53.822;10.152;2023-05-21T07:50:36;11.30;;;6.15;;
26512;SDS011;14186;53.822;10.152;2023-05-21T07:55:38;12.65;;;6.55;;
26512;SDS011;14186;53.822;10.152;2023-05-21T08:00:41;11.00;;;6.53;;
26512;SDS011;14186;53.822;10.152;2023-05-21T08:05:41;10.60;;;6.05;;
26512;SDS011;14186;53.822;10.152;2023-05-21T08:10:43;10.85;;;6.68;;
26512;SDS011;14186;53.822;10.152;2023-05-21T08:15:43;11.15;;;6.72;;
26512;SDS011;14186;53.822;10.152;2023-05-21T08:20:43;11.65;;;6.43;;
26512;SDS011;14186;53.822;10.152;2023-05-21T08:25:45;12.48;;;6.85;;
26512;SDS011;14186;53.822;10.152;2023-05-21T08:30:45;14.73;;;7.78;;
26512;SDS011;14186;53.822;10.152;2023-05-21T08:35:45;12.50;;;6.18;;
26512;SDS011;14186;53.822;10.152;2023-05-21T08:40:47;9.23;;;5.65;;
26512;SDS011;14186;53.822;10.152;2023-05-21T08:45:50;12.20;;;6.85;;
26512;SDS011;14186;53.822;10.152;2023-05-21T08:50:53;14.73;;;7.03;;
26512;SDS011;14186;53.822;10.152;2023-05-21T08:55:54;12.00;;;6.90;;
26512;SDS011;14186;53.822;10.152;2023-05-21T09:00:55;12.35;;;6.57;;
26512;SDS011;14186;53.822;10.152;2023-05-21T09:05:56;11.70;;;6.50;;
26512;SDS011;14186;53.822;10.152;2023-05-21T09:10:59;15.73;;;6.88;;
26512;SDS011;14186;53.822;10.152;2023-05-21T09:16:00;11.00;;;7.60;;
26512;SDS011;14186;53.822;10.152;2023-05-21T09:21:01;9.45;;;6.45;;
26512;SDS011;14186;53.822;10.152;2023-05-21T09:26:22;13.88;;;6.93;;
26512;SDS011;14186;53.822;10.152;2023-05-21T09:31:23;12.25;;;7.13;;
26512;SDS011;14186;53.822;10.152;2023-05-21T09:36:23;12.95;;;8.05;;
26512;SDS011;14186;53.822;10.152;2023-05-21T09:41:31;15.00;;;6.88;;
26512;SDS011;14186;53.822;10.152;2023-05-21T09:46:37;12.00;;;7.13;;
26512;SDS011;14186;53.822;10.152;2023-05-21T09:51:38;11.80;;;7.03;;
26512;SDS011;14186;53.822;10.152;2023-05-21T09:56:39;12.73;;;7.78;;
26512;SDS011;14186;53.822;10.152;2023-05-21T10:01:39;11.35;;;7.68;;
26512;SDS011;14186;53.822;10.152;2023-05-21T10:06:41;11.65;;;7.80;;
26512;SDS011;14186;53.822;10.152;2023-05-21T10:11:43;12.13;;;8.52;;
26512;SDS011;14186;53.822;10.152;2023-05-21T10:16:43;12.70;;;8.15;;
26512;SDS011;14186;53.822;10.152;2023-05-21T10:21:45;14.23;;;8.10;;
26512;SDS011;14186;53.822;10.152;2023-05-21T10:26:47;15.38;;;8.32;;
26512;SDS011;14186;53.822;10.152;2023-05-21T10:31:47;16.08;;;9.07;;
26512;SDS011;14186;53.822;10.152;2023-05-21T10:36:48;12.50;;;8.10;;
26512;SDS011;14186;53.822;10.152;2023-05-21T10:47:19;13.65;;;7.70;;
26512;SDS011;14186;53.822;10.152;2023-05-21T10:52:30;14.70;;;7.68;;
26512;SDS011;14186;53.822;10.152;2023-05-21T10:57:52;12.00;;;7.93;;
26512;SDS011;14186;53.822;10.152;2023-05-21T11:02:57;14.10;;;9.18;;
26512;SDS011;14186;53.822;10.152;2023-05-21T11:07:58;15.82;;;10.68;;
26512;SDS011;14186;53.822;10.152;2023-05-21T11:13:06;14.68;;;9.35;;
26512;SDS011;14186;53.822;10.152;2023-05-21T11:18:07;16.23;;;10.18;;
26512;SDS011;14186;53.822;10.152;2023-05-21T11:23:09;16.48;;;9.05;;
26512;SDS011;14186;53.822;10.152;2023-05-21T11:28:09;14.90;;;9.43;;
26512;SDS011;14186;53.822;10.152;2023-05-21T11:33:17;15.18;;;9.15;;
26512;SDS011;14186;53.822;10.152;2023-05-21T11:38:17;11.68;;;8.02;;
26512;SDS011;14186;53.822;10.152;2023-05-21T11:43:18;14.45;;;8.70;;
26512;SDS011;14186;53.822;10.152;2023-05-21T11:48:20;13.40;;;7.72;;
26512;SDS011;14186;53.822;10.152;2023-05-21T11:53:23;12.57;;;7.72;;
26512;SDS011;14186;53.822;10.152;2023-05-21T11:58:23;12.20;;;8.80;;
26512;SDS011;14186;53.822;10.152;2023-05-21T12:03:25;14.10;;;9.75;;
26512;SDS011;14186;53.822;10.152;2023-05-21T12:08:25;13.50;;;8.65;;
26512;SDS011;14186;53.822;10.152;2023-05-21T12:13:25;12.50;;;8.15;;
26512;SDS011;14186;53.822;10.152;2023-05-21T12:18:26;13.23;;;8.52;;
26512;SDS011;14186;53.822;10.152;2023-05-21T12:23:27;11.00;;;8.20;;
26512;SDS011;14186;53.822;10.152;2023-05-21T12:28:27;12.82;;;9.15;;
26512;SDS011;14186;53.822;10.152;2023-05-21T12:33:33;13.18;;;9.25;;
26512;SDS011;14186;53.822;10.152;2023-05-21T12:38:33;13.90;;;8.48;;
26512;SDS011;14186;53.822;10.152;2023-05-21T12:43:33;12.43;;;8.90;;
26512;SDS011;14186;53.822;10.152;2023-05-21T12:48:35;11.02;;;8.52;;
26512;SDS011;14186;53.822;10.152;2023-05-21T12:53:35;11.60;;;7.75;;
26512;SDS011;14186;53.822;10.152;2023-05-21T12:58:35;14.38;;;7.85;;
26512;SDS011;14186;53.822;10.152;2023-05-21T13:03:37;11.93;;;7.93;;
26512;SDS011;14186;53.822;10.152;2023-05-21T13:08:37;11.27;;;7.50;;
26512;SDS011;14186;53.822;10.152;2023-05-21T13:13:37;16.52;;;8.15;;
26512;SDS011;14186;53.822;10.152;2023-05-21T13:18:39;10.23;;;7.22;;
26512;SDS011;14186;53.822;10.152;2023-05-21T13:23:39;11.00;;;6.88;;
26512;SDS011;14186;53.822;10.152;2023-05-21T13:28:39;11.80;;;7.35;;
26512;SDS011;14186;53.822;10.152;2023-05-21T13:33:41;8.88;;;7.25;;
26512;SDS011;14186;53.822;10.152;2023-05-21T13:38:41;11.75;;;6.95;;
26512;SDS011;14186;53.822;10.152;2023-05-21T13:43:41;11.13;;;6.93;;
26512;SDS011;14186;53.822;10.152;2023-05-21T13:48:43;10.35;;;7.30;;
26512;SDS011;14186;53.822;10.152;2023-05-21T13:53:43;12.90;;;8.20;;
26512;SDS011;14186;53.822;10.152;2023-05-21T13:58:43;11.15;;;7.80;;
26512;SDS011;14186;53.822;10.152;2023-05-21T14:03:45;10.15;;;6.82;;
26512;SDS011;14186;53.822;10.152;2023-05-21T14:08:45;11.98;;;7.38;;
26512;SDS011;14186;53.822;10.152;2023-05-21T14:13:45;10.65;;;7.78;;
26512;SDS011;14186;53.822;10.152;2023-05-21T14:18:47;11.18;;;7.85;;
26512;SDS011;14186;53.822;10.152;2023-05-21T14:23:47;11.93;;;6.82;;
26512;SDS011;14186;53.822;10.152;2023-05-21T14:28:47;10.77;;;7.38;;
26512;SDS011;14186;53.822;10.152;2023-05-21T14:33:49;9.38;;;7.15;;
26512;SDS011;14186;53.822;10.152;2023-05-21T14:38:49;13.25;;;8.23;;
26512;SDS011;14186;53.822;10.152;2023-05-21T14:43:49;10.38;;;6.60;;
26512;SDS011;14186;53.822;10.152;2023-05-21T14:48:51;11.13;;;6.72;;
26512;SDS011;14186;53.822;10.152;2023-05-21T14:53:51;10.38;;;6.05;;
26512;SDS011;14186;53.822;10.152;2023-05-21T14:58:51;11.07;;;7.05;;
26512;SDS011;14186;53.822;10.152;2023-05-21T15:03:53;9.32;;;6.63;;
26512;SDS011;14186;53.822;10.152;2023-05-21T15:08:53;11.45;;;5.80;;
26512;SDS011;14186;53.822;10.152;2023-05-21T15:13:53;10.52;;;6.82;;
26512;SDS011;14186;53.822;10.152;2023-05-21T15:18:55;8.30;;;6.55;;
26512;SDS011;14186;53.822;10.152;2023-05-21T15:23:55;9.88;;;7.13;;
26512;SDS011;14186;53.822;10.152;2023-05-21T15:28:55;10.85;;;7.20;;
26512;SDS011;14186;53.822;10.152;2023-05-21T15:33:57;8.65;;;6.72;;
26512;SDS011;14186;53.822;10.152;2023-05-21T15:38:57;12.75;;;6.90;;
26512;SDS011;14186;53.822;10.152;2023-05-21T15:43:57;9.45;;;5.95;;
26512;SDS011;14186;53.822;10.152;2023-05-21T15:48:59;9.30;;;7.18;;
26512;SDS011;14186;53.822;10.152;2023-05-21T15:53:59;10.95;;;7.03;;
26512;SDS011;14186;53.822;10.152;2023-05-21T15:58:59;9.13;;;6.65;;
26512;SDS011;14186;53.822;10.152;2023-05-21T16:04:01;8.80;;;6.43;;
26512;SDS011;14186;53.822;10.152;2023-05-21T16:09:01;8.80;;;5.97;;
26512;SDS011;14186;53.822;10.152;2023-05-21T16:14:01;9.50;;;6.40;;
26512;SDS011;14186;53.822;10.152;2023-05-21T16:19:03;10.50;;;6.97;;
26512;SDS011;14186;53.822;10.152;2023-05-21T16:24:03;10.18;;;6.50;;
26512;SDS011;14186;53.822;10.152;2023-05-21T16:29:03;9.05;;;6.70;;
26512;SDS011;14186;53.822;10.152;2023-05-21T16:34:05;10.05;;;6.55;;
26512;SDS011;14186;53.822;10.152;2023-05-21T16:39:05;8.10;;;6.53;;
26512;SDS011;14186;53.822;10.152;2023-05-21T16:44:05;12.65;;;7.75;;
26512;SDS011;14186;53.822;10.152;2023-05-21T16:49:07;9.07;;;6.55;;
26512;SDS011;14186;53.822;10.152;2023-05-21T16:54:07;10.63;;;6.80;;
26512;SDS011;14186;53.822;10.152;2023-05-21T16:59:07;12.70;;;7.75;;
26512;SDS011;14186;53.822;10.152;2023-05-21T17:04:09;10.27;;;6.90;;
26512;SDS011;14186;53.822;10.152;2023-05-21T17:09:09;9.98;;;6.35;;
26512;SDS011;14186;53.822;10.152;2023-05-21T17:14:09;12.55;;;7.05;;
26512;SDS011;14186;53.822;10.152;2023-05-21T17:19:11;11.63;;;7.15;;
26512;SDS011;14186;53.822;10.152;2023-05-21T17:24:11;12.88;;;8.00;;
26512;SDS011;14186;53.822;10.152;2023-05-21T17:29:11;10.52;;;7.28;;
26512;SDS011;14186;53.822;10.152;2023-05-21T17:34:13;17.42;;;8.20;;
26512;SDS011;14186;53.822;10.152;2023-05-21T17:39:13;11.35;;;7.65;;
26512;SDS011;14186;53.822;10.152;2023-05-21T17:44:13;9.70;;;6.57;;
26512;SDS011;14186;53.822;10.152;2023-05-21T17:49:15;11.87;;;7.43;;
26512;SDS011;14186;53.822;10.152;2023-05-21T17:54:15;11.80;;;7.68;;
26512;SDS011;14186;53.822;10.152;2023-05-21T17:59:15;9.40;;;7.60;;
26512;SDS011;14186;53.822;10.152;2023-05-21T18:04:17;13.38;;;8.20;;
26512;SDS011;14186;53.822;10.152;2023-05-21T18:09:17;12.52;;;7.63;;
26512;SDS011;14186;53.822;10.152;2023-05-21T18:14:17;11.43;;;8.30;;
26512;SDS011;14186;53.822;10.152;2023-05-21T18:19:19;11.27;;;7.90;;
26512;SDS011;14186;53.822;10.152;2023-05-21T18:24:19;13.15;;;8.25;;
26512;SDS011;14186;53.822;10.152;2023-05-21T18:29:19;10.73;;;8.07;;
26512;SDS011;14186;53.822;10.152;2023-05-21T18:34:21;12.38;;;7.82;;
26512;SDS011;14186;53.822;10.152;2023-05-21T18:39:21;17.40;;;8.88;;
26512;SDS011;14186;53.822;10.152;2023-05-21T18:44:21;12.25;;;8.27;;
26512;SDS011;14186;53.822;10.152;2023-05-21T18:49:23;14.20;;;8.60;;
26512;SDS011;14186;53.822;10.152;2023-05-21T18:54:23;14.55;;;9.00;;
26512;SDS011;14186;53.822;10.152;2023-05-21T18:59:23;18.23;;;8.70;;
26512;SDS011;14186;53.822;10.152;2023-05-21T19:04:25;13.10;;;8.50;;
26512;SDS011;14186;53.822;10.152;2023-05-21T19:09:25;12.93;;;9.27;;
26512;SDS011;14186;53.822;10.152;2023-05-21T19:14:25;9.90;;;8.45;;
26512;SDS011;14186;53.822;10.152;2023-05-21T19:19:27;14.20;;;8.75;;
26512;SDS011;14186;53.822;10.152;2023-05-21T19:24:27;14.85;;;10.48;;
26512;SDS011;14186;53.822;10.152;2023-05-21T19:29:27;15.40;;;9.98;;
26512;SDS011;14186;53.822;10.152;2023-05-21T19:34:29;14.68;;;9.32;;
26512;SDS011;14186;53.822;10.152;2023-05-21T19:39:29;15.85;;;9.70;;
26512;SDS011;14186;53.822;10.152;2023-05-21T19:44:37;15.77;;;9.32;;
26512;SDS011;14186;53.822;10.152;2023-05-21T19:49:39;16.88;;;9.57;;
26512;SDS011;14186;53.822;10.152;2023-05-21T19:54:39;16.25;;;10.00;;
26512;SDS011;14186;53.822;10.152;2023-05-21T19:59:40;13.43;;;9.50;;
26512;SDS011;14186;53.822;10.152;2023-05-21T20:04:41;15.52;;;10.73;;
26512;SDS011;14186;53.822;10.152;2023-05-21T20:09:41;14.07;;;10.07;;
26512;SDS011;14186;53.822;10.152;2023-05-21T20:14:41;14.02;;;10.25;;
26512;SDS011;14186;53.822;10.152;2023-05-21T20:19:43;12.68;;;9.65;;
26512;SDS011;14186;53.822;10.152;2023-05-21T20:24:43;15.80;;;10.75;;
26512;SDS011;14186;53.822;10.152;2023-05-21T20:29:43;15.40;;;10.75;;
26512;SDS011;14186;53.822;10.152;2023-05-21T20:34:45;15.02;;;10.52;;
26512;SDS011;14186;53.822;10.152;2023-05-21T20:39:45;13.20;;;9.82;;
26512;SDS011;14186;53.822;10.152;2023-05-21T20:44:45;12.80;;;9.55;;
26512;SDS011;14186;53.822;10.152;2023-05-21T20:49:47;14.95;;;10.43;;
26512;SDS011;14186;53.822;10.152;2023-05-21T20:54:47;14.10;;;9.57;;
26512;SDS011;14186;53.822;10.152;2023-05-21T20:59:48;16.48;;;10.18;;
26512;SDS011;14186;53.822;10.152;2023-05-21T21:04:49;14.30;;;10.13;;
26512;SDS011;14186;53.822;10.152;2023-05-21T21:09:49;15.65;;;10.63;;
26512;SDS011;14186;53.822;10.152;2023-05-21T21:14:50;13.73;;;10.20;;
26512;SDS011;14186;53.822;10.152;2023-05-21T21:19:51;14.00;;;9.65;;
26512;SDS011;14186;53.822;10.152;2023-05-21T21:24:51;16.23;;;10.57;;
26512;SDS011;14186;53.822;10.152;2023-05-21T21:29:51;14.57;;;10.27;;
26512;SDS011;14186;53.822;10.152;2023-05-21T21:34:53;16.02;;;10.73;;
26512;SDS011;14186;53.822;10.152;2023-05-21T21:39:56;16.38;;;9.95;;
26512;SDS011;14186;53.822;10.152;2023-05-21T21:44:56;15.80;;;11.00;;
26512;SDS011;14186;53.822;10.152;2023-05-21T21:49:58;13.65;;;10.55;;
26512;SDS011;14186;53.822;10.152;2023-05-21T21:54:58;14.35;;;10.88;;
26512;SDS011;14186;53.822;10.152;2023-05-21T21:59:59;15.73;;;10.57;;
26512;SDS011;14186;53.822;10.152;2023-05-21T22:05:00;19.42;;;11.75;;
26512;SDS011;14186;53.822;10.152;2023-05-21T22:10:00;14.93;;;10.45;;
26512;SDS011;14186;53.822;10.152;2023-05-21T22:15:00;16.30;;;11.10;;
26512;SDS011;14186;53.822;10.152;2023-05-21T22:20:02;17.23;;;12.23;;
26512;SDS011;14186;53.822;10.152;2023-05-21T22:25:03;14.95;;;11.02;;
26512;SDS011;14186;53.822;10.152;2023-05-21T22:30:03;13.65;;;10.73;;
26512;SDS011;14186;53.822;10.152;2023-05-21T22:35:05;15.20;;;11.43;;
26512;SDS011;14186;53.822;10.152;2023-05-21T22:40:06;16.55;;;10.45;;
26512;SDS011;14186;53.822;10.152;2023-05-21T22:45:07;14.93;;;10.10;;
26512;SDS011;14186;53.822;10.152;2023-05-21T22:50:09;14.50;;;11.05;;
26512;SDS011;14186;53.822;10.152;2023-05-21T22:55:09;13.35;;;10.32;;
26512;SDS011;14186;53.822;10.152;2023-05-21T23:00:10;14.27;;;9.65;;
26512;SDS011;14186;53.822;10.152;2023-05-21T23:05:11;14.80;;;10.55;;
26512;SDS011;14186;53.822;10.152;2023-05-21T23:10:12;11.30;;;9.20;;
26512;SDS011;14186;53.822;10.152;2023-05-21T23:15:12;14.77;;;9.60;;
26512;SDS011;14186;53.822;10.152;2023-05-21T23:20:14;16.63;;;9.63;;
26512;SDS011;14186;53.822;10.152;2023-05-21T23:25:14;11.82;;;8.88;;
26512;SDS011;14186;53.822;10.152;2023-05-21T23:30:14;12.20;;;8.57;;
26512;SDS011;14186;53.822;10.152;2023-05-21T23:35:16;13.30;;;9.38;;
26512;SDS011;14186;53.822;10.152;2023-05-21T23:40:16;10.93;;;9.10;;
26512;SDS011;14186;53.822;10.152;2023-05-21T23:45:17;13.10;;;9.55;;
26512;SDS011;14186;53.822;10.152;2023-05-21T23:50:18;12.75;;;9.13;;
26512;SDS011;14186;53.822;10.152;2023-05-21T23:55:18;12.95;;;9.35;;
